createdAt,value
2018-02-05T00:01:45.171Z,40.40
2018-02-05T00:04:13.731Z,39.70
2018-02-05T00:06:42.949Z,40.20
2018-02-05T00:09:17.258Z,47.40
2018-02-05T00:11:47.549Z,39.47
2018-02-05T00:14:20.268Z,38.37
2018-02-05T00:16:51.500Z,54.30
2018-02-05T00:19:23.287Z,39.23
2018-02-05T00:21:53.569Z,49.10
2018-02-05T00:24:28.112Z,49.83
2018-02-05T00:26:58.436Z,50.73
2018-02-05T00:29:30.849Z,70.00
2018-02-05T00:31:59.332Z,48.70
2018-02-05T00:34:29.735Z,32.00
2018-02-05T00:37:00.980Z,39.20
2018-02-05T00:39:34.070Z,50.00
2018-02-05T00:42:04.389Z,50.00
2018-02-05T00:44:38.491Z,33.83
2018-02-05T00:49:42.439Z,37.00
2018-02-05T00:52:14.209Z,29.47
2018-02-05T00:54:47.502Z,43.20
2018-02-05T00:57:15.969Z,49.87
2018-02-05T00:59:46.229Z,33.57
2018-02-05T01:02:25.215Z,43.03
2018-02-05T01:05:01.948Z,33.93
2018-02-05T01:07:32.215Z,33.73
2018-02-05T01:10:00.802Z,29.87
2018-02-05T01:12:31.957Z,30.97
2018-02-05T01:15:01.251Z,29.80
2018-02-05T01:17:31.559Z,30.90
2018-02-05T01:20:01.788Z,51.20
2018-02-05T01:22:30.488Z,49.37
2018-02-05T01:25:00.793Z,46.27
2018-02-05T01:27:30.173Z,49.00
2018-02-05T01:29:58.713Z,62.77
2018-02-05T01:32:29.017Z,52.97
2018-02-05T01:35:00.038Z,60.07
2018-02-05T01:37:30.395Z,59.17
2018-02-05T01:40:02.880Z,46.97
2018-02-05T01:42:33.521Z,56.80
2018-02-05T01:45:02.613Z,56.73
2018-02-05T01:47:31.907Z,44.13
2018-02-05T01:50:01.103Z,40.17
2018-02-05T01:52:30.423Z,39.33
2018-02-05T01:54:59.719Z,39.30
2018-02-05T01:57:29.781Z,29.43
2018-02-05T01:59:58.530Z,39.97
2018-02-05T02:02:28.957Z,36.37
2018-02-05T02:04:58.360Z,30.77
2018-02-05T02:07:29.663Z,32.40
2018-02-05T02:09:59.930Z,35.23
2018-02-05T02:12:30.721Z,35.87
2018-02-05T02:15:05.042Z,28.73
2018-02-05T02:17:33.576Z,33.77
2018-02-05T02:20:04.776Z,36.80
2018-02-05T02:22:34.905Z,31.20
2018-02-05T02:25:05.277Z,28.40
2018-02-05T02:27:41.957Z,32.90
2018-02-05T02:30:10.828Z,35.17
2018-02-05T02:32:43.778Z,35.67
2018-02-05T02:35:15.162Z,29.87
2018-02-05T02:37:48.643Z,27.93
2018-02-05T02:40:19.304Z,32.13
2018-02-05T02:42:50.968Z,35.07
2018-02-05T02:45:19.953Z,32.90
2018-02-05T02:47:50.228Z,33.33
2018-02-05T02:50:21.690Z,36.47
2018-02-05T02:52:59.270Z,35.10
2018-02-05T02:55:31.922Z,31.40
2018-02-05T02:58:02.018Z,33.03
2018-02-05T03:00:32.630Z,32.93
2018-02-05T03:03:01.124Z,31.13
2018-02-05T03:05:31.166Z,34.50
2018-02-05T03:08:01.476Z,31.10
2018-02-05T03:10:34.136Z,30.50
2018-02-05T03:13:03.652Z,32.40
2018-02-05T03:15:33.965Z,29.30
2018-02-05T03:18:05.522Z,26.77
2018-02-05T03:20:33.960Z,30.87
2018-02-05T03:23:04.122Z,31.67
2018-02-05T03:25:34.210Z,31.67
2018-02-05T03:28:04.365Z,32.30
2018-02-05T03:30:38.016Z,26.03
2018-02-05T03:35:41.365Z,30.73
2018-02-05T03:38:14.057Z,27.80
2018-02-05T03:40:45.331Z,30.27
2018-02-05T03:43:18.331Z,24.77
2018-02-05T03:45:48.716Z,28.37
2018-02-05T03:48:19.794Z,26.67
2018-02-05T03:50:50.040Z,30.23
2018-02-05T03:53:31.262Z,26.97
2018-02-05T03:56:01.586Z,31.80
2018-02-05T03:58:34.606Z,27.90
2018-02-05T04:01:05.652Z,29.63
2018-02-05T04:03:38.937Z,28.13
2018-02-05T04:06:10.189Z,31.67
2018-02-05T04:08:39.809Z,31.50
2018-02-05T04:11:09.190Z,28.97
2018-02-05T04:13:39.627Z,25.97
2018-02-05T04:16:09.908Z,27.73
2018-02-05T04:18:42.473Z,27.90
2018-02-05T04:21:11.224Z,25.77
2018-02-05T04:23:39.831Z,25.20
2018-02-05T04:26:11.603Z,27.00
2018-02-05T04:28:41.767Z,28.00
2018-02-05T04:31:12.071Z,27.80
2018-02-05T04:33:44.564Z,28.77
2018-02-05T04:36:14.999Z,27.07
2018-02-05T04:38:44.536Z,25.67
2018-02-05T04:41:15.362Z,26.57
2018-02-05T04:43:49.449Z,25.17
2018-02-05T04:46:18.171Z,25.47
2018-02-05T04:48:48.433Z,22.40
2018-02-05T04:51:19.314Z,24.50
2018-02-05T04:53:47.816Z,21.97
2018-02-05T04:56:19.166Z,22.87
2018-02-05T04:58:49.310Z,20.63
2018-02-05T05:01:19.400Z,19.37
2018-02-05T05:03:48.648Z,23.70
2018-02-05T05:06:17.180Z,22.03
2018-02-05T05:08:47.342Z,19.93
2018-02-05T05:11:18.616Z,20.60
2018-02-05T05:13:49.743Z,20.07
2018-02-05T05:16:20.782Z,20.97
2018-02-05T05:18:50.167Z,23.30
2018-02-05T05:21:19.870Z,19.20
2018-02-05T05:23:51.044Z,19.10
2018-02-05T05:26:22.276Z,20.27
2018-02-05T05:28:51.870Z,22.27
2018-02-05T05:31:28.543Z,19.40
2018-02-05T05:33:57.730Z,19.27
2018-02-05T05:36:26.902Z,16.83
2018-02-05T05:38:55.387Z,18.63
2018-02-05T05:41:25.948Z,18.60
2018-02-05T05:44:07.542Z,18.40
2018-02-05T05:46:36.118Z,16.10
2018-02-05T05:49:06.446Z,16.23
2018-02-05T05:51:45.540Z,16.27
2018-02-05T05:54:35.574Z,17.87
2018-02-05T05:57:06.728Z,14.57
2018-02-05T05:59:37.960Z,16.67
2018-02-05T06:02:07.408Z,18.13
2018-02-05T06:04:38.042Z,18.70
2018-02-05T06:07:08.277Z,18.30
2018-02-05T06:09:38.548Z,19.20
2018-02-05T06:12:08.728Z,16.90
2018-02-05T06:14:38.442Z,18.00
2018-02-05T06:17:07.042Z,15.03
2018-02-05T06:19:38.243Z,15.93
2018-02-05T06:22:08.454Z,15.47
2018-02-05T06:24:37.368Z,13.60
2018-02-05T06:27:08.400Z,16.63
2018-02-05T06:29:36.914Z,20.20
2018-02-05T06:32:07.258Z,16.20
2018-02-05T06:34:38.303Z,15.13
2018-02-05T06:37:08.600Z,15.20
2018-02-05T06:39:39.446Z,13.77
2018-02-05T06:42:11.283Z,15.33
2018-02-05T06:44:41.752Z,18.70
2018-02-05T06:47:11.533Z,22.20
2018-02-05T06:49:40.154Z,16.90
2018-02-05T06:52:20.903Z,16.17
2018-02-05T06:55:01.071Z,15.00
2018-02-05T06:57:31.503Z,18.30
2018-02-05T07:00:02.527Z,16.63
2018-02-05T07:02:38.987Z,14.13
2018-02-05T07:05:14.605Z,15.60
2018-02-05T07:07:45.082Z,17.67
2018-02-05T07:10:15.227Z,17.50
2018-02-05T07:12:46.649Z,18.43
2018-02-05T07:15:15.900Z,19.33
2018-02-05T07:17:46.571Z,16.67
2018-02-05T07:20:17.307Z,15.27
2018-02-05T07:22:48.732Z,18.30
2018-02-05T07:25:17.201Z,17.07
2018-02-05T07:27:46.450Z,14.53
2018-02-05T07:30:16.682Z,16.07
2018-02-05T07:32:47.865Z,14.70
2018-02-05T07:35:20.105Z,17.30
2018-02-05T07:37:50.047Z,16.83
2018-02-05T07:40:21.313Z,19.33
2018-02-05T07:42:52.531Z,14.70
2018-02-05T07:45:22.971Z,13.20
2018-02-05T07:47:54.003Z,19.80
2018-02-05T07:50:24.121Z,16.03
2018-02-05T07:52:54.425Z,14.60
2018-02-05T07:55:28.175Z,14.93
2018-02-05T07:57:59.167Z,18.00
2018-02-05T08:00:34.122Z,16.73
2018-02-05T08:03:04.331Z,13.70
2018-02-05T08:05:36.011Z,15.47
2018-02-05T08:08:04.439Z,13.20
2018-02-05T08:10:34.585Z,11.60
2018-02-05T08:13:04.887Z,12.57
2018-02-05T08:15:36.615Z,14.80
2018-02-05T08:18:05.911Z,14.23
2018-02-05T08:20:36.105Z,14.83
2018-02-05T08:23:04.786Z,14.70
2018-02-05T08:25:34.959Z,15.83
2018-02-05T08:28:03.516Z,14.60
2018-02-05T08:30:36.983Z,18.47
2018-02-05T08:36:00.433Z,15.30
2018-02-05T08:38:39.507Z,14.60
2018-02-05T08:41:10.753Z,15.00
2018-02-05T08:43:39.339Z,12.17
2018-02-05T08:46:09.569Z,17.47
2018-02-05T08:48:42.659Z,14.57
2018-02-05T08:51:13.789Z,15.07
2018-02-05T08:53:44.112Z,15.50
2018-02-05T08:56:13.568Z,12.83
2018-02-05T08:58:43.837Z,24.70
2018-02-05T09:01:16.425Z,16.00
2018-02-05T09:03:52.104Z,14.00
2018-02-05T09:06:22.425Z,15.00
2018-02-05T09:08:56.006Z,14.10
2018-02-05T09:11:26.430Z,16.73
2018-02-05T09:13:57.867Z,13.57
2018-02-05T09:16:27.498Z,15.07
2018-02-05T09:18:56.071Z,14.90
2018-02-05T09:21:25.611Z,14.57
2018-02-05T09:23:55.884Z,14.60
2018-02-05T09:26:26.776Z,13.50
2018-02-05T09:28:55.479Z,14.73
2018-02-05T09:31:43.467Z,12.47
2018-02-05T09:34:13.723Z,15.47
2018-02-05T09:36:45.062Z,12.03
2018-02-05T09:39:24.367Z,12.07
2018-02-05T09:41:55.531Z,17.83
2018-02-05T09:44:24.257Z,11.57
2018-02-05T09:46:53.534Z,11.73
2018-02-05T09:49:28.006Z,7.80
2018-02-05T09:51:58.267Z,14.70
2018-02-05T09:54:30.053Z,11.30
2018-02-05T09:57:00.553Z,17.30
2018-02-05T09:59:31.388Z,11.10
2018-02-05T10:02:03.559Z,11.00
2018-02-05T10:04:34.486Z,13.10
2018-02-05T10:07:05.148Z,13.50
2018-02-05T10:09:37.494Z,8.43
2018-02-05T10:12:08.834Z,12.37
2018-02-05T10:14:40.770Z,10.07
2018-02-05T10:17:12.581Z,7.80
2018-02-05T10:19:41.568Z,10.83
2018-02-05T10:22:10.583Z,14.67
2018-02-05T10:24:39.267Z,14.63
2018-02-05T10:27:08.056Z,10.93
2018-02-05T10:29:42.642Z,10.93
2018-02-05T10:32:14.633Z,11.03
2018-02-05T10:34:43.968Z,11.50
2018-02-05T10:37:12.640Z,12.40
2018-02-05T10:39:43.034Z,11.57
2018-02-05T10:42:16.558Z,9.80
2018-02-05T10:44:46.990Z,14.10
2018-02-05T10:47:18.036Z,17.67
2018-02-05T10:49:51.660Z,13.63
2018-02-05T10:52:22.582Z,11.47
2018-02-05T10:54:52.222Z,12.40
2018-02-05T10:57:21.436Z,11.63
2018-02-05T10:59:51.726Z,15.60
2018-02-05T11:02:24.994Z,16.20
2018-02-05T11:04:53.602Z,18.20
2018-02-05T11:07:22.085Z,21.13
2018-02-05T11:09:50.574Z,8.80
2018-02-05T11:12:25.276Z,15.37
2018-02-05T11:14:55.524Z,15.37
2018-02-05T11:17:25.018Z,17.17
2018-02-05T11:19:53.554Z,10.43
2018-02-05T11:22:32.231Z,11.10
2018-02-05T11:25:02.419Z,14.40
2018-02-05T11:27:35.619Z,14.47
2018-02-05T11:30:05.670Z,15.30
2018-02-05T11:32:36.862Z,18.53
2018-02-05T11:35:08.039Z,10.90
2018-02-05T11:37:37.502Z,13.83
2018-02-05T11:40:06.158Z,14.17
2018-02-05T11:42:36.496Z,11.17
2018-02-05T11:45:05.984Z,14.63
2018-02-05T11:47:34.569Z,14.53
2018-02-05T11:50:03.144Z,11.30
2018-02-05T11:52:34.861Z,15.93
2018-02-05T11:55:05.124Z,14.53
2018-02-05T11:57:34.761Z,12.27
2018-02-05T12:00:18.068Z,14.33
2018-02-05T12:02:48.497Z,12.37
2018-02-05T12:05:21.280Z,15.10
2018-02-05T12:07:50.586Z,14.67
2018-02-05T12:10:35.421Z,14.73
2018-02-05T12:13:06.309Z,13.10
2018-02-05T12:15:35.528Z,18.67
2018-02-05T12:18:06.540Z,21.83
2018-02-05T12:20:39.014Z,20.57
2018-02-05T12:23:07.696Z,16.03
2018-02-05T12:25:38.028Z,25.43
2018-02-05T12:28:09.072Z,18.33
2018-02-05T12:30:39.214Z,28.30
2018-02-05T12:33:12.487Z,16.33
2018-02-05T12:35:41.228Z,16.93
2018-02-05T12:38:11.493Z,14.93
2018-02-05T12:40:42.632Z,13.40
2018-02-05T12:43:14.036Z,12.63
2018-02-05T12:45:46.060Z,13.87
2018-02-05T12:48:16.398Z,14.27
2018-02-05T12:50:46.735Z,13.83
2018-02-05T12:53:17.070Z,16.90
2018-02-05T12:55:48.489Z,22.90
2018-02-05T12:58:17.824Z,15.23
2018-02-05T13:00:58.983Z,15.43
2018-02-05T13:06:32.605Z,15.10
2018-02-05T13:09:01.263Z,17.40
2018-02-05T13:11:33.083Z,15.13
2018-02-05T13:14:03.220Z,14.77
2018-02-05T13:16:33.655Z,14.50
2018-02-05T13:19:04.710Z,13.70
2018-02-05T13:21:36.793Z,14.53
2018-02-05T13:24:10.435Z,12.90
2018-02-05T13:26:41.117Z,14.87
2018-02-05T13:29:12.318Z,19.53
2018-02-05T13:31:44.280Z,17.27
2018-02-05T13:34:14.524Z,14.07
2018-02-05T13:36:45.587Z,16.80
2018-02-05T13:39:22.977Z,13.40
2018-02-05T13:41:51.973Z,14.17
2018-02-05T13:44:22.133Z,15.30
2018-02-05T13:46:50.731Z,18.03
2018-02-05T13:49:24.147Z,19.23
2018-02-05T13:51:55.665Z,13.70
2018-02-05T13:54:25.155Z,17.50
2018-02-05T13:56:54.352Z,13.27
2018-02-05T13:59:24.735Z,14.00
2018-02-05T14:01:56.219Z,21.43
2018-02-05T14:04:27.266Z,15.10
2018-02-05T14:06:59.841Z,17.97
2018-02-05T14:09:28.433Z,26.23
2018-02-05T14:11:57.639Z,17.17
2018-02-05T14:14:26.324Z,24.43
2018-02-05T14:16:54.900Z,14.73
2018-02-05T14:19:35.872Z,17.70
2018-02-05T14:22:07.061Z,18.20
2018-02-05T14:24:35.709Z,16.27
2018-02-05T14:27:06.046Z,18.37
2018-02-05T14:29:37.182Z,17.20
2018-02-05T14:32:08.102Z,20.07
2018-02-05T14:34:36.693Z,17.77
2018-02-05T14:37:07.875Z,11.27
2018-02-05T14:39:39.509Z,15.93
2018-02-05T14:42:08.725Z,17.30
2018-02-05T14:44:38.981Z,17.47
2018-02-05T14:47:08.443Z,16.00
2018-02-05T14:49:37.037Z,19.37
2018-02-05T14:52:07.344Z,22.63
2018-02-05T14:54:36.767Z,14.13
2018-02-05T14:59:46.387Z,14.83
2018-02-05T15:02:17.425Z,20.17
2018-02-05T15:04:47.690Z,18.40
2018-02-05T15:07:18.725Z,16.20
2018-02-05T15:09:47.338Z,16.20
2018-02-05T15:12:17.539Z,15.60
2018-02-05T15:14:46.170Z,15.97
2018-02-05T15:17:14.810Z,18.77
2018-02-05T15:19:43.309Z,19.70
2018-02-05T15:22:11.992Z,21.40
2018-02-05T15:24:46.705Z,15.87
2018-02-05T15:27:17.039Z,18.93
2018-02-05T15:29:48.080Z,17.70
2018-02-05T15:32:23.324Z,19.10
2018-02-05T15:34:53.456Z,19.50
2018-02-05T15:37:22.131Z,17.63
2018-02-05T15:40:04.970Z,15.40
2018-02-05T15:42:33.644Z,15.73
2018-02-05T15:45:02.323Z,17.43
2018-02-05T15:47:30.880Z,16.53
2018-02-05T15:50:02.120Z,13.90
2018-02-05T15:52:30.772Z,17.50
2018-02-05T15:55:01.040Z,14.63
2018-02-05T15:57:30.402Z,15.67
2018-02-05T15:59:59.168Z,14.17
2018-02-05T16:02:34.817Z,18.63
2018-02-05T16:05:04.520Z,15.20
2018-02-05T16:07:33.116Z,23.97
2018-02-05T16:10:01.698Z,33.57
2018-02-05T16:12:30.290Z,39.00
2018-02-05T16:14:59.075Z,19.73
2018-02-05T16:17:28.675Z,20.13
2018-02-05T16:19:57.193Z,23.13
2018-02-05T16:22:26.077Z,19.03
2018-02-05T16:24:56.433Z,16.40
2018-02-05T16:27:25.943Z,18.30
2018-02-05T16:29:56.253Z,18.63
2018-02-05T16:32:29.198Z,16.07
2018-02-05T16:34:58.608Z,13.73
2018-02-05T16:37:27.303Z,21.73
2018-02-05T16:40:00.662Z,18.63
2018-02-05T16:42:29.496Z,16.43
2018-02-05T16:44:59.853Z,16.03
2018-02-05T16:47:35.779Z,18.43
2018-02-05T16:50:05.486Z,20.30
2018-02-05T16:52:35.869Z,20.57
2018-02-05T16:55:05.343Z,19.70
2018-02-05T16:57:33.965Z,20.57
2018-02-05T17:00:05.078Z,18.13
2018-02-05T17:02:35.663Z,19.17
2018-02-05T17:05:05.918Z,18.20
2018-02-05T17:07:37.767Z,19.67
2018-02-05T17:10:08.122Z,20.30
2018-02-05T17:12:41.713Z,19.50
2018-02-05T17:15:13.856Z,23.17
2018-02-05T17:17:42.981Z,27.17
2018-02-05T17:20:11.541Z,33.27
2018-02-05T17:22:40.022Z,34.97
2018-02-05T17:25:09.345Z,32.77
2018-02-05T17:27:38.022Z,21.93
2018-02-05T17:30:09.886Z,25.70
2018-02-05T17:32:38.567Z,20.43
2018-02-05T17:35:08.919Z,19.50
2018-02-05T17:37:42.735Z,19.60
2018-02-05T17:40:15.887Z,24.57
2018-02-05T17:42:46.195Z,20.33
2018-02-05T17:45:25.650Z,17.80
2018-02-05T17:47:54.332Z,19.17
2018-02-05T17:50:24.631Z,20.27
2018-02-05T17:52:56.450Z,26.73
2018-02-05T17:55:25.969Z,30.87
2018-02-05T17:57:54.620Z,24.47
2018-02-05T18:00:32.333Z,21.67
2018-02-05T18:03:01.748Z,20.50
2018-02-05T18:05:32.251Z,21.23
2018-02-05T18:08:09.977Z,23.23
2018-02-05T18:10:38.630Z,20.33
2018-02-05T18:13:08.936Z,18.73
2018-02-05T18:15:41.597Z,22.60
2018-02-05T18:18:11.027Z,20.23
2018-02-05T18:20:40.475Z,23.03
2018-02-05T18:23:09.973Z,21.10
2018-02-05T18:25:38.551Z,22.57
2018-02-05T18:28:08.985Z,28.20
2018-02-05T18:30:42.509Z,18.33
2018-02-05T18:33:12.857Z,19.67
2018-02-05T18:35:43.039Z,19.70
2018-02-05T18:38:11.714Z,19.57
2018-02-05T18:40:42.007Z,20.00
2018-02-05T18:43:32.548Z,16.47
2018-02-05T18:46:01.837Z,17.93
2018-02-05T18:48:30.994Z,18.33
2018-02-05T18:51:01.232Z,18.20
2018-02-05T18:53:31.059Z,16.17
2018-02-05T18:56:00.419Z,21.60
2018-02-05T18:58:29.047Z,17.20
2018-02-05T19:00:58.556Z,21.27
2018-02-05T19:03:28.761Z,17.50
2018-02-05T19:05:59.569Z,17.00
2018-02-05T19:08:36.769Z,16.87
2018-02-05T19:11:06.280Z,18.50
2018-02-05T19:13:37.766Z,13.07
2018-02-05T19:16:09.006Z,16.70
2018-02-05T19:18:37.902Z,15.73
2018-02-05T19:21:09.239Z,12.30
2018-02-05T19:23:39.364Z,15.70
2018-02-05T19:26:08.194Z,23.07
2018-02-05T19:28:38.727Z,14.60
2018-02-05T19:31:12.835Z,14.60
2018-02-05T19:33:42.136Z,17.03
2018-02-05T19:36:12.267Z,16.07
2018-02-05T19:38:49.208Z,19.60
2018-02-05T19:41:19.083Z,19.13
2018-02-05T19:43:48.038Z,17.63
2018-02-05T19:46:18.326Z,18.43
2018-02-05T19:48:52.421Z,17.87
2018-02-05T19:51:25.749Z,16.10
2018-02-05T19:53:57.212Z,16.67
2018-02-05T19:56:27.768Z,16.20
2018-02-05T20:08:43.307Z,14.17
2018-02-05T20:11:14.518Z,17.47
2018-02-05T20:13:45.054Z,17.00
2018-02-05T20:16:16.249Z,15.10
2018-02-05T20:18:47.030Z,23.10
2018-02-05T20:21:15.972Z,18.30
2018-02-05T20:23:47.402Z,15.30
2018-02-05T20:26:19.881Z,21.07
2018-02-05T20:28:48.515Z,18.70
2018-02-05T20:31:17.412Z,20.97
2018-02-05T20:33:47.131Z,18.77
2018-02-05T20:36:15.962Z,18.30
2018-02-05T20:38:44.688Z,18.50
2018-02-05T20:41:13.351Z,14.13
2018-02-05T20:43:42.038Z,15.40
2018-02-05T20:46:10.933Z,13.80
2018-02-05T20:48:39.608Z,15.47
2018-02-05T20:51:08.208Z,14.53
2018-02-05T20:53:36.792Z,15.73
2018-02-05T20:56:05.483Z,15.10
2018-02-05T20:58:36.614Z,15.10
2018-02-05T21:01:07.635Z,13.50
2018-02-05T21:03:37.898Z,15.73
2018-02-05T21:06:07.519Z,15.57
2018-02-05T21:08:36.075Z,16.73
2018-02-05T21:11:04.840Z,16.20
2018-02-05T21:13:33.332Z,16.17
2018-02-05T21:16:01.942Z,18.20
2018-02-05T21:18:30.630Z,15.90
2018-02-05T21:20:59.998Z,16.67
2018-02-05T21:23:30.263Z,17.03
2018-02-05T21:25:58.957Z,14.33
2018-02-05T21:28:27.536Z,20.67
2018-02-05T21:30:56.103Z,17.60
2018-02-05T21:33:26.525Z,16.60
2018-02-05T21:35:57.588Z,16.20
2018-02-05T21:38:26.087Z,17.10
2018-02-05T21:40:54.763Z,16.37
2018-02-05T21:43:24.984Z,15.17
2018-02-05T21:45:53.577Z,16.70
2018-02-05T21:48:22.023Z,22.17
2018-02-05T21:50:52.336Z,16.73
2018-02-05T21:53:24.655Z,15.73
2018-02-05T21:55:53.856Z,18.50
2018-02-05T21:58:23.936Z,20.83
2018-02-05T22:00:54.421Z,17.17
2018-02-05T22:03:23.810Z,18.37
2018-02-05T22:05:56.232Z,18.73
2018-02-05T22:08:26.507Z,24.73
2018-02-05T22:10:57.666Z,23.60
2018-02-05T22:13:26.457Z,19.70
2018-02-05T22:15:58.030Z,20.23
2018-02-05T22:18:28.656Z,17.43
2018-02-05T22:20:59.042Z,23.97
2018-02-05T22:23:30.396Z,16.07
2018-02-05T22:25:59.934Z,19.70
2018-02-05T22:28:29.022Z,16.53
2018-02-05T22:30:59.582Z,17.67
2018-02-05T22:33:31.442Z,16.77
2018-02-05T22:36:00.656Z,19.37
2018-02-05T22:38:31.836Z,23.73
2018-02-05T22:41:00.428Z,19.10
2018-02-05T22:43:29.047Z,24.73
2018-02-05T22:45:57.607Z,16.50
2018-02-05T22:48:26.107Z,19.70
2018-02-05T22:51:07.166Z,19.27
2018-02-05T22:53:36.582Z,17.37
2018-02-05T22:56:05.039Z,18.87
2018-02-05T22:58:35.222Z,19.97
2018-02-05T23:01:05.464Z,17.87
2018-02-05T23:03:35.832Z,20.40
2018-02-05T23:06:06.068Z,16.97
2018-02-05T23:11:26.250Z,15.73
2018-02-05T23:13:58.521Z,17.40
2018-02-05T23:16:27.011Z,17.73
2018-02-05T23:18:57.279Z,15.93
2018-02-05T23:21:26.520Z,17.07
2018-02-05T23:23:55.015Z,17.87
2018-02-05T23:26:24.115Z,19.90
2018-02-05T23:28:52.592Z,22.20
2018-02-05T23:31:21.083Z,24.77
2018-02-05T23:33:49.769Z,19.93
2018-02-05T23:36:18.509Z,22.37
2018-02-05T23:38:50.621Z,17.90
2018-02-05T23:41:21.565Z,30.17
2018-02-05T23:43:51.784Z,25.40
2018-02-05T23:46:24.551Z,22.30
2018-02-05T23:48:57.235Z,17.83
2018-02-05T23:51:29.289Z,23.80
2018-02-05T23:53:59.474Z,19.50
2018-02-05T23:56:28.023Z,17.50
2018-02-05T23:58:56.614Z,19.50
